createdAt,value
2023-02-21T00:02:05.955Z,10.80
2023-02-21T00:04:52.960Z,12.90
2023-02-21T00:07:38.994Z,12.80
2023-02-21T00:10:26.920Z,19.40
2023-02-21T00:13:13.152Z,10.20
2023-02-21T00:15:58.912Z,13.70
2023-02-21T00:18:44.960Z,10.80
2023-02-21T00:21:30.943Z,16.20
2023-02-21T00:24:16.752Z,15.30
2023-02-21T00:27:02.718Z,12.60
2023-02-21T00:29:48.757Z,10.40
2023-02-21T00:32:34.865Z,11.00
2023-02-21T00:35:21.634Z,13.40
2023-02-21T00:38:11.584Z,9.30
2023-02-21T00:40:57.577Z,9.40
2023-02-21T00:43:51.879Z,9.70
2023-02-21T00:46:38.763Z,8.70
2023-02-21T00:49:24.858Z,6.60
2023-02-21T00:52:10.666Z,8.80
2023-02-21T00:55:06.057Z,6.80
2023-02-21T00:57:57.064Z,10.80
2023-02-21T01:00:48.689Z,12.10
2023-02-21T01:03:42.294Z,8.40
2023-02-21T01:06:33.210Z,8.40
2023-02-21T01:09:20.711Z,12.80
2023-02-21T01:12:06.469Z,6.50
2023-02-21T01:14:52.469Z,9.00
2023-02-21T01:17:38.073Z,13.90
2023-02-21T01:20:24.236Z,7.50
2023-02-21T01:23:10.108Z,8.30
2023-02-21T01:25:55.711Z,7.40
2023-02-21T01:28:41.479Z,5.00
2023-02-21T01:31:27.031Z,5.50
2023-02-21T01:34:13.070Z,9.50
2023-02-21T01:37:09.171Z,4.40
2023-02-21T01:39:55.080Z,10.50
2023-02-21T01:42:40.881Z,6.80
2023-02-21T01:45:42.665Z,4.10
2023-02-21T01:48:36.990Z,4.80
2023-02-21T01:51:24.840Z,2.40
2023-02-21T01:54:12.135Z,2.30
2023-02-21T01:56:58.671Z,6.70
2023-02-21T01:59:45.347Z,2.30
2023-02-21T02:02:48.168Z,13.90
2023-02-21T02:05:34.846Z,2.70
2023-02-21T02:08:20.719Z,9.20
2023-02-21T02:11:28.676Z,2.90
2023-02-21T02:14:27.106Z,5.10
2023-02-21T02:17:07.462Z,11.60
2023-02-21T02:20:00.543Z,4.30
2023-02-21T02:22:59.177Z,6.70
2023-02-21T02:25:54.533Z,6.50
2023-02-21T02:28:46.334Z,3.50
2023-02-21T02:31:31.689Z,13.40
2023-02-21T02:34:30.802Z,2.20
2023-02-21T02:37:06.536Z,3.10
2023-02-21T02:39:52.028Z,5.20
2023-02-21T02:42:32.591Z,2.90
2023-02-21T02:45:39.283Z,2.50
2023-02-21T02:48:30.584Z,4.60
2023-02-21T02:51:00.468Z,12.20
2023-02-21T02:53:30.208Z,5.20
2023-02-21T02:56:03.920Z,2.90
2023-02-21T02:58:35.754Z,9.30
2023-02-21T03:01:24.011Z,2.60
2023-02-21T03:04:09.093Z,3.40
2023-02-21T03:06:53.212Z,8.50
2023-02-21T03:09:29.656Z,2.20
2023-02-21T03:12:11.871Z,8.30
2023-02-21T03:15:06.670Z,7.60
2023-02-21T03:17:43.303Z,2.50
2023-02-21T03:20:13.247Z,3.40
2023-02-21T03:22:40.845Z,6.10
2023-02-21T03:25:09.297Z,3.70
2023-02-21T03:27:39.573Z,6.80
2023-02-21T03:30:09.211Z,5.70
2023-02-21T03:32:40.334Z,2.70
2023-02-21T03:37:38.464Z,14.70
2023-02-21T03:40:12.985Z,5.60
2023-02-21T03:42:39.964Z,5.80
2023-02-21T03:45:07.355Z,10.70
2023-02-21T03:47:34.196Z,5.20
2023-02-21T03:50:01.134Z,4.20
2023-02-21T03:52:28.083Z,4.10
2023-02-21T03:55:00.571Z,4.40
2023-02-21T03:57:28.912Z,4.30
2023-02-21T03:59:56.910Z,6.20
2023-02-21T04:02:23.883Z,4.90
2023-02-21T04:04:51.910Z,3.30
2023-02-21T04:07:20.705Z,8.80
2023-02-21T04:09:49.189Z,8.00
2023-02-21T04:12:16.128Z,10.70
2023-02-21T04:14:43.060Z,5.40
2023-02-21T04:17:10.120Z,7.80
2023-02-21T04:19:36.961Z,8.70
2023-02-21T04:22:03.799Z,9.80
2023-02-21T04:24:30.737Z,14.80
2023-02-21T04:26:58.595Z,14.60
2023-02-21T04:29:28.192Z,8.70
2023-02-21T04:32:01.964Z,13.80
2023-02-21T04:34:33.866Z,19.60
2023-02-21T04:37:02.047Z,5.60
2023-02-21T04:39:28.774Z,4.50
2023-02-21T04:41:55.737Z,10.30
2023-02-21T04:44:22.978Z,6.20
2023-02-21T04:46:49.913Z,15.90
2023-02-21T04:49:16.980Z,10.40
2023-02-21T04:51:43.906Z,9.40
2023-02-21T04:54:13.005Z,12.50
2023-02-21T04:56:40.901Z,9.10
2023-02-21T04:59:08.018Z,10.30
2023-02-21T05:01:35.085Z,8.00
2023-02-21T05:04:03.273Z,84.20
2023-02-21T05:06:31.704Z,203.90
2023-02-21T05:08:59.665Z,72.80
2023-02-21T05:11:27.228Z,27.60
2023-02-21T05:13:54.002Z,36.50
2023-02-21T05:16:21.275Z,25.80
2023-02-21T05:18:49.549Z,26.50
2023-02-21T05:21:17.713Z,41.90
2023-02-21T05:23:56.228Z,19.10
2023-02-21T05:26:26.530Z,11.30
2023-02-21T05:28:53.458Z,14.70
2023-02-21T05:31:20.646Z,24.70
2023-02-21T05:33:48.070Z,75.50
2023-02-21T05:36:14.971Z,24.00
2023-02-21T05:38:51.554Z,79.20
2023-02-21T05:41:19.720Z,32.50
2023-02-21T05:43:48.616Z,21.70
2023-02-21T05:46:27.228Z,120.10
2023-02-21T05:48:55.149Z,38.60
2023-02-21T05:51:22.944Z,21.60
2023-02-21T05:53:50.535Z,49.60
2023-02-21T05:56:18.748Z,119.60
2023-02-21T05:58:45.720Z,15.00
2023-02-21T06:01:13.054Z,26.90
2023-02-21T06:03:40.366Z,17.30
2023-02-21T06:06:07.951Z,22.30
2023-02-21T06:08:47.036Z,13.10
2023-02-21T06:11:14.856Z,19.60
2023-02-21T06:13:43.051Z,42.50
2023-02-21T06:16:10.103Z,29.40
2023-02-21T06:18:37.074Z,32.40
2023-02-21T06:21:04.471Z,37.20
2023-02-21T06:23:31.329Z,53.60
2023-02-21T06:25:58.290Z,40.00
2023-02-21T06:28:30.027Z,26.50
2023-02-21T06:30:57.840Z,100.20
2023-02-21T06:33:25.057Z,29.70
2023-02-21T06:35:52.214Z,22.20
2023-02-21T06:38:19.240Z,20.10
2023-02-21T06:40:46.180Z,34.70
2023-02-21T06:43:13.121Z,30.80
2023-02-21T06:45:40.098Z,23.90
2023-02-21T06:48:08.063Z,12.60
2023-02-21T06:50:35.298Z,15.50
2023-02-21T06:53:02.259Z,16.20
2023-02-21T06:55:29.270Z,14.50
2023-02-21T06:57:56.233Z,14.20
2023-02-21T07:00:23.254Z,12.00
2023-02-21T07:02:50.220Z,14.00
2023-02-21T07:05:17.327Z,25.00
2023-02-21T07:07:44.488Z,41.40
2023-02-21T07:10:11.445Z,10.80
2023-02-21T07:12:38.377Z,10.30
2023-02-21T07:15:07.265Z,29.10
2023-02-21T07:17:34.217Z,23.30
2023-02-21T07:20:01.246Z,19.10
2023-02-21T07:22:29.233Z,35.10
2023-02-21T07:24:57.065Z,23.10
2023-02-21T07:27:24.181Z,25.10
2023-02-21T07:29:51.625Z,22.20
2023-02-21T07:32:18.716Z,10.00
2023-02-21T07:34:46.012Z,21.40
2023-02-21T07:37:13.738Z,23.00
2023-02-21T07:39:41.089Z,16.40
2023-02-21T07:42:13.305Z,26.20
2023-02-21T07:44:40.398Z,52.00
2023-02-21T07:47:07.776Z,20.60
2023-02-21T07:49:39.105Z,28.50
2023-02-21T07:52:06.379Z,51.80
2023-02-21T07:54:33.515Z,73.60
2023-02-21T07:57:00.573Z,82.70
2023-02-21T07:59:27.592Z,45.60
2023-02-21T08:01:54.795Z,340.90
2023-02-21T08:04:22.216Z,462.20
2023-02-21T08:06:49.976Z,143.50
2023-02-21T08:09:17.014Z,73.40
2023-02-21T08:11:44.042Z,249.30
2023-02-21T08:14:11.220Z,618.50
2023-02-21T08:16:38.522Z,310.70
2023-02-21T08:19:06.133Z,338.70
2023-02-21T08:21:33.372Z,165.80
2023-02-21T08:24:00.419Z,512.60
2023-02-21T08:26:27.435Z,354.30
2023-02-21T08:28:54.492Z,194.10
2023-02-21T08:31:22.263Z,135.80
2023-02-21T08:33:49.539Z,64.30
2023-02-21T08:36:16.773Z,114.40
2023-02-21T08:38:44.117Z,72.30
2023-02-21T08:41:11.039Z,182.70
2023-02-21T08:43:38.219Z,75.70
2023-02-21T08:46:05.808Z,434.60
2023-02-21T08:48:33.329Z,192.60
2023-02-21T08:51:06.880Z,75.50
2023-02-21T08:53:35.609Z,99.10
2023-02-21T08:56:05.009Z,40.20
2023-02-21T08:58:32.138Z,56.30
2023-02-21T09:00:59.161Z,22.10
2023-02-21T09:03:26.504Z,34.20
2023-02-21T09:05:53.625Z,60.00
2023-02-21T09:08:22.466Z,19.80
2023-02-21T09:10:49.868Z,19.90
2023-02-21T09:13:16.866Z,26.40
2023-02-21T09:15:44.025Z,44.40
2023-02-21T09:18:12.388Z,30.30
2023-02-21T09:20:42.756Z,14.10
2023-02-21T09:23:10.589Z,21.90
2023-02-21T09:25:37.835Z,14.70
2023-02-21T09:28:05.309Z,9.00
2023-02-21T09:30:32.631Z,4.80
2023-02-21T09:32:59.675Z,6.00
2023-02-21T09:35:26.679Z,8.30
2023-02-21T09:37:53.763Z,5.20
2023-02-21T09:40:56.193Z,4.10
2023-02-21T09:43:48.064Z,2.80
2023-02-21T09:46:36.626Z,2.10
2023-02-21T09:49:11.079Z,1.70
2023-02-21T09:51:41.949Z,4.50
2023-02-21T09:54:23.454Z,3.20
2023-02-21T09:56:50.752Z,2.80
2023-02-21T09:59:18.608Z,3.10
2023-02-21T10:02:04.247Z,3.40
2023-02-21T10:04:34.305Z,3.80
2023-02-21T10:07:24.194Z,2.40
2023-02-21T10:10:02.365Z,2.30
2023-02-21T10:12:52.196Z,2.30
2023-02-21T10:15:35.001Z,1.90
2023-02-21T10:18:25.324Z,3.60
2023-02-21T10:20:59.871Z,4.10
2023-02-21T10:23:42.518Z,1.00
2023-02-21T10:26:18.312Z,1.50
2023-02-21T10:28:45.361Z,1.60
2023-02-21T10:31:18.867Z,2.10
2023-02-21T10:33:46.591Z,1.30
2023-02-21T10:36:23.902Z,2.10
2023-02-21T10:38:59.475Z,1.30
2023-02-21T10:41:29.894Z,1.20
2023-02-21T10:44:07.948Z,1.20
2023-02-21T10:46:40.694Z,2.00
2023-02-21T10:49:49.168Z,1.90
2023-02-21T10:52:21.744Z,1.80
2023-02-21T10:55:32.227Z,1.90
2023-02-21T10:58:08.965Z,1.10
2023-02-21T11:00:40.030Z,1.20
2023-02-21T11:03:19.628Z,1.30
2023-02-21T11:05:54.849Z,0.90
2023-02-21T11:08:59.776Z,1.40
2023-02-21T11:11:41.125Z,1.30
2023-02-21T11:14:19.868Z,2.00
2023-02-21T11:17:15.955Z,2.60
2023-02-21T11:19:48.959Z,1.60
2023-02-21T11:22:19.856Z,3.10
2023-02-21T11:25:00.942Z,2.50
2023-02-21T11:27:32.263Z,2.10
2023-02-21T11:30:02.874Z,2.50
2023-02-21T11:32:41.131Z,1.80
2023-02-21T11:35:20.318Z,2.00
2023-02-21T11:37:59.088Z,2.00
2023-02-21T11:40:49.842Z,2.60
2023-02-21T11:43:32.299Z,2.40
2023-02-21T11:46:17.309Z,2.20
2023-02-21T11:49:18.008Z,3.60
2023-02-21T11:51:56.737Z,1.90
2023-02-21T11:54:30.214Z,2.00
2023-02-21T11:57:08.124Z,2.90
2023-02-21T11:59:57.291Z,2.60
2023-02-21T12:02:46.066Z,1.80
2023-02-21T12:05:43.062Z,2.20
2023-02-21T12:08:23.460Z,1.70
2023-02-21T12:11:20.278Z,2.10
2023-02-21T12:14:24.521Z,1.50
2023-02-21T12:17:15.321Z,1.20
2023-02-21T12:20:10.487Z,2.20
2023-02-21T12:22:55.884Z,2.20
2023-02-21T12:25:47.406Z,5.90
2023-02-21T12:28:19.043Z,2.10
2023-02-21T12:30:53.121Z,2.90
2023-02-21T12:33:45.557Z,2.90
2023-02-21T12:36:25.864Z,3.40
2023-02-21T12:39:14.820Z,2.80
2023-02-21T12:41:57.847Z,2.40
2023-02-21T12:44:33.644Z,2.50
2023-02-21T12:47:06.891Z,2.00
2023-02-21T12:49:44.640Z,2.20
2023-02-21T12:52:17.884Z,2.10
2023-02-21T12:54:57.509Z,3.40
2023-02-21T12:57:44.409Z,3.80
2023-02-21T13:00:24.979Z,2.20
2023-02-21T13:03:01.710Z,3.60
2023-02-21T13:05:44.265Z,2.00
2023-02-21T13:08:33.813Z,2.20
2023-02-21T13:11:17.732Z,3.00
2023-02-21T13:13:45.328Z,2.70
2023-02-21T13:16:14.736Z,3.40
2023-02-21T13:18:59.784Z,1.20
2023-02-21T13:21:53.071Z,1.60
2023-02-21T13:24:55.843Z,1.90
2023-02-21T13:27:44.927Z,2.80
2023-02-21T13:30:20.866Z,2.50
2023-02-21T13:32:58.071Z,1.80
2023-02-21T13:35:37.102Z,2.00
2023-02-21T13:38:11.276Z,2.40
2023-02-21T13:40:51.211Z,4.00
2023-02-21T13:43:50.409Z,2.20
2023-02-21T13:46:52.418Z,2.30
2023-02-21T13:49:39.908Z,2.90
2023-02-21T13:52:25.066Z,2.40
2023-02-21T13:55:26.653Z,3.00
2023-02-21T13:58:00.714Z,3.50
2023-02-21T14:00:28.449Z,4.40
2023-02-21T14:03:09.338Z,3.20
2023-02-21T14:05:45.854Z,4.10
2023-02-21T14:08:16.202Z,2.80
2023-02-21T14:10:50.529Z,4.20
2023-02-21T14:13:41.093Z,4.50
2023-02-21T14:16:08.155Z,4.80
2023-02-21T14:18:58.396Z,3.80
2023-02-21T14:21:34.142Z,3.10
2023-02-21T14:24:10.453Z,2.70
2023-02-21T14:26:45.572Z,3.90
2023-02-21T14:29:36.032Z,4.70
2023-02-21T14:32:03.990Z,6.10
2023-02-21T14:34:50.544Z,3.70
2023-02-21T14:37:22.165Z,5.50
2023-02-21T14:39:56.847Z,4.00
2023-02-21T14:42:48.370Z,3.30
2023-02-21T14:45:35.362Z,3.40
2023-02-21T14:48:08.230Z,3.30
2023-02-21T14:51:14.724Z,4.20
2023-02-21T14:54:06.942Z,3.80
2023-02-21T14:56:48.828Z,6.10
2023-02-21T14:59:31.201Z,3.70
2023-02-21T15:02:16.987Z,2.50
2023-02-21T15:04:56.208Z,2.60
2023-02-21T15:07:49.709Z,3.90
2023-02-21T15:10:31.675Z,3.10
2023-02-21T15:13:02.631Z,4.90
2023-02-21T15:18:02.269Z,5.00
2023-02-21T15:20:34.394Z,4.40
2023-02-21T15:23:10.656Z,4.80
2023-02-21T15:25:37.911Z,6.80
2023-02-21T15:28:15.510Z,7.20
2023-02-21T15:30:43.048Z,8.40
2023-02-21T15:33:18.224Z,6.40
2023-02-21T15:36:01.688Z,6.60
2023-02-21T15:38:35.686Z,7.00
2023-02-21T15:41:14.644Z,6.10
2023-02-21T15:43:54.099Z,7.00
2023-02-21T15:46:30.382Z,6.60
2023-02-21T15:49:03.354Z,10.20
2023-02-21T15:51:31.088Z,9.10
2023-02-21T15:54:31.744Z,5.30
2023-02-21T15:57:04.847Z,6.00
2023-02-21T15:59:33.398Z,5.80
2023-02-21T16:02:15.989Z,6.10
2023-02-21T16:04:46.016Z,6.70
2023-02-21T16:07:35.342Z,10.30
2023-02-21T16:10:06.933Z,8.50
2023-02-21T16:12:38.194Z,8.00
2023-02-21T16:15:25.087Z,9.30
2023-02-21T16:18:03.592Z,8.70
2023-02-21T16:20:42.035Z,7.90
2023-02-21T16:23:20.939Z,7.40
2023-02-21T16:25:57.025Z,7.40
2023-02-21T16:28:24.248Z,8.90
2023-02-21T16:30:51.620Z,7.10
2023-02-21T16:33:19.170Z,6.70
2023-02-21T16:35:46.176Z,8.20
2023-02-21T16:38:21.357Z,8.90
2023-02-21T16:40:49.128Z,9.00
2023-02-21T16:43:36.321Z,8.10
2023-02-21T16:46:03.439Z,11.10
2023-02-21T16:48:35.024Z,8.30
2023-02-21T16:51:05.159Z,7.30
2023-02-21T16:53:32.384Z,9.80
2023-02-21T16:56:01.576Z,9.40
2023-02-21T16:58:31.448Z,8.90
2023-02-21T17:01:06.036Z,9.50
2023-02-21T17:03:33.163Z,9.40
2023-02-21T17:06:01.513Z,9.60
2023-02-21T17:08:29.234Z,8.50
2023-02-21T17:10:57.506Z,9.00
2023-02-21T17:13:25.874Z,8.30
2023-02-21T17:15:54.527Z,10.90
2023-02-21T17:18:21.885Z,11.50
2023-02-21T17:20:48.732Z,10.40
2023-02-21T17:23:15.679Z,10.10
2023-02-21T17:25:43.631Z,11.00
2023-02-21T17:28:10.480Z,8.20
2023-02-21T17:30:37.886Z,7.40
2023-02-21T17:33:05.893Z,8.50
2023-02-21T17:35:33.389Z,8.40
2023-02-21T17:38:01.959Z,11.90
2023-02-21T17:40:30.104Z,11.40
2023-02-21T17:42:58.305Z,11.70
2023-02-21T17:45:26.556Z,15.20
2023-02-21T17:47:56.485Z,12.50
2023-02-21T17:50:24.094Z,17.30
2023-02-21T17:52:51.162Z,12.50
2023-02-21T17:55:26.247Z,13.00
2023-02-21T17:57:53.671Z,11.70
2023-02-21T18:00:27.171Z,12.50
2023-02-21T18:02:55.670Z,14.30
2023-02-21T18:05:23.836Z,14.30
2023-02-21T18:07:53.346Z,13.30
2023-02-21T18:10:24.135Z,15.50
2023-02-21T18:12:52.245Z,19.50
2023-02-21T18:15:30.084Z,17.80
2023-02-21T18:18:06.487Z,16.20
2023-02-21T18:20:34.469Z,15.80
2023-02-21T18:23:03.591Z,12.90
2023-02-21T18:25:30.494Z,11.90
2023-02-21T18:27:57.753Z,12.50
2023-02-21T18:30:25.016Z,14.90
2023-02-21T18:32:52.119Z,13.90
2023-02-21T18:35:20.310Z,35.20
2023-02-21T18:37:49.083Z,18.70
2023-02-21T18:40:18.361Z,13.80
2023-02-21T18:42:45.950Z,13.40
2023-02-21T18:45:13.211Z,11.30
2023-02-21T18:47:40.968Z,13.90
2023-02-21T18:50:08.746Z,10.70
2023-02-21T18:52:36.021Z,12.70
2023-02-21T18:55:04.426Z,12.30
2023-02-21T18:57:32.004Z,13.40
2023-02-21T18:59:59.351Z,13.90
2023-02-21T19:02:27.387Z,13.40
2023-02-21T19:04:54.363Z,16.30
2023-02-21T19:07:21.373Z,16.20
2023-02-21T19:09:50.587Z,12.10
2023-02-21T19:12:18.086Z,11.40
2023-02-21T19:14:45.479Z,9.20
2023-02-21T19:17:12.817Z,8.30
2023-02-21T19:19:40.100Z,9.10
2023-02-21T19:22:07.612Z,8.20
2023-02-21T19:24:35.919Z,9.60
2023-02-21T19:27:03.850Z,11.30
2023-02-21T19:29:30.977Z,10.40
2023-02-21T19:31:58.277Z,11.20
2023-02-21T19:34:25.930Z,10.60
2023-02-21T19:36:53.027Z,9.30
2023-02-21T19:39:20.488Z,12.60
2023-02-21T19:41:48.089Z,12.90
2023-02-21T19:44:15.476Z,9.30
2023-02-21T19:46:42.488Z,10.00
2023-02-21T19:49:18.399Z,10.10
2023-02-21T19:51:46.736Z,11.30
2023-02-21T19:54:15.292Z,10.30
2023-02-21T19:56:42.652Z,8.20
2023-02-21T19:59:09.633Z,11.40
2023-02-21T20:01:36.705Z,21.50
2023-02-21T20:04:05.441Z,25.30
2023-02-21T20:06:35.634Z,20.70
2023-02-21T20:09:04.584Z,17.80
2023-02-21T20:11:32.009Z,40.90
2023-02-21T20:14:00.300Z,43.10
2023-02-21T20:16:28.677Z,26.40
2023-02-21T20:18:57.955Z,34.40
2023-02-21T20:21:30.758Z,38.30
2023-02-21T20:24:01.852Z,32.00
2023-02-21T20:26:30.451Z,42.50
2023-02-21T20:28:57.726Z,40.10
2023-02-21T20:31:29.152Z,31.10
2023-02-21T20:33:56.934Z,36.80
2023-02-21T20:36:33.564Z,33.10
2023-02-21T20:39:00.809Z,31.20
2023-02-21T20:41:33.053Z,35.00
2023-02-21T20:44:00.611Z,31.60
2023-02-21T20:46:29.212Z,29.30
2023-02-21T20:48:59.195Z,24.30
2023-02-21T20:51:33.705Z,20.30
2023-02-21T20:54:02.180Z,14.90
2023-02-21T20:56:36.654Z,11.80
2023-02-21T20:59:05.587Z,13.60
2023-02-21T21:01:32.576Z,15.50
2023-02-21T21:03:59.774Z,15.20
2023-02-21T21:06:26.924Z,15.80
2023-02-21T21:08:54.746Z,15.80
2023-02-21T21:11:26.280Z,15.20
2023-02-21T21:13:53.460Z,14.30
2023-02-21T21:16:20.534Z,15.90
2023-02-21T21:18:47.596Z,19.30
2023-02-21T21:21:14.984Z,31.40
2023-02-21T21:23:42.552Z,39.50
2023-02-21T21:26:09.841Z,48.40
2023-02-21T21:28:37.280Z,55.50
2023-02-21T21:31:05.368Z,49.30
2023-02-21T21:33:33.330Z,57.60
2023-02-21T21:36:00.550Z,67.10
2023-02-21T21:38:29.130Z,45.10
2023-02-21T21:40:57.650Z,47.50
2023-02-21T21:43:27.037Z,42.50
2023-02-21T21:45:54.620Z,40.80
2023-02-21T21:48:21.543Z,49.30
2023-02-21T21:50:48.479Z,53.90
2023-02-21T21:53:16.760Z,42.70
2023-02-21T21:55:43.708Z,45.90
2023-02-21T21:58:11.167Z,36.50
2023-02-21T22:00:42.314Z,38.00
2023-02-21T22:03:14.770Z,40.20
2023-02-21T22:05:43.779Z,71.50
2023-02-21T22:08:16.675Z,39.50
2023-02-21T22:10:45.377Z,42.00
2023-02-21T22:13:20.254Z,39.60
2023-02-21T22:15:47.597Z,42.70
2023-02-21T22:18:19.277Z,26.80
2023-02-21T22:20:50.312Z,31.60
2023-02-21T22:25:48.800Z,34.60
2023-02-21T22:28:16.754Z,52.50
2023-02-21T22:30:43.724Z,50.50
2023-02-21T22:33:13.751Z,41.50
2023-02-21T22:35:41.826Z,43.00
2023-02-21T22:38:14.635Z,48.10
2023-02-21T22:40:43.060Z,35.30
2023-02-21T22:43:10.823Z,28.40
2023-02-21T22:45:38.882Z,24.30
2023-02-21T22:48:08.030Z,31.00
2023-02-21T22:50:37.478Z,42.50
2023-02-21T22:53:08.456Z,48.50
2023-02-21T22:58:09.786Z,26.30
2023-02-21T23:00:38.209Z,23.10
2023-02-21T23:03:13.568Z,27.30
2023-02-21T23:05:46.894Z,28.20
2023-02-21T23:08:16.313Z,30.10
2023-02-21T23:10:55.918Z,25.20
2023-02-21T23:13:24.937Z,22.90
2023-02-21T23:15:55.735Z,27.60
2023-02-21T23:20:53.241Z,42.10
2023-02-21T23:23:26.664Z,43.30
2023-02-21T23:25:59.303Z,88.00
2023-02-21T23:28:31.322Z,65.10
2023-02-21T23:30:58.832Z,92.50
2023-02-21T23:33:29.648Z,40.90
2023-02-21T23:35:58.017Z,23.70
2023-02-21T23:38:28.476Z,57.80
2023-02-21T23:40:58.238Z,60.60
2023-02-21T23:43:29.721Z,93.80
2023-02-21T23:45:58.651Z,41.80
2023-02-21T23:48:26.473Z,43.60
2023-02-21T23:50:58.129Z,37.00
2023-02-21T23:53:28.370Z,19.40
2023-02-21T23:55:57.912Z,17.00
2023-02-21T23:58:28.302Z,24.90
